Time;durP1;ratioP1;P1;durP2;ratioP2;P2;SDS_P1;SDS_P2;PMS_P1;PMS_P2;Temp;Humidity;BMP_temperature;BMP_pressure;BME280_temperature;BME280_humidity;BME280_pressure;Samples;Min_cycle;Max_cycle;Signal;HPM_P1;HPM_P2
2023/10/24 00:00:09;;;;;;;;;;;;;;;17.48;82.50;99624.03;349424;28;1302;-80
2023/10/24 00:00:19;;;;;;;;;;;;;;;17.49;82.58;99632.81;347355;28;1301;-80
2023/10/24 00:00:29;;;;;;;;;;;;;;;17.47;82.50;99629.44;348630;28;1363;-80
2023/10/24 00:00:39;;;;;;;;;;;;;;;17.47;82.84;99622.34;351434;28;1195;-80
2023/10/24 00:00:50;;;;;;;;;;;;;;;17.47;82.69;99632.91;350474;28;1318;-80
2023/10/24 00:01:00;;;;;;;;;;;;;;;17.47;82.61;99632.06;352266;28;1195;-80
2023/10/24 00:01:10;;;;;;;;;;;;;;;17.47;82.78;99632.06;348170;28;1365;-80
2023/10/24 00:01:20;;;;;;;;;;;;;;;17.46;82.60;99628.56;348017;28;1240;-82
2023/10/24 00:01:31;;;;;;;;;;;;;;;17.45;82.77;99624.25;346637;28;1417;-81
2023/10/24 00:01:41;;;;;;;;;;;;;;;17.45;82.66;99632.19;347884;28;1365;-80
2023/10/24 00:01:51;;;;;;;;;;;;;;;17.47;82.62;99634.72;348521;28;1360;-80
2023/10/24 00:02:01;;;;;;;;;;;;;;;17.47;82.59;99637.38;346370;28;1349;-80
2023/10/24 00:02:12;;;;;;;;;;;;;;;17.47;82.69;99626.78;342770;28;1164;-80
2023/10/24 00:02:22;;;;;;;;;;;;;;;17.47;82.69;99632.91;344153;28;1258;-81
2023/10/24 00:02:32;;;;;;;;;;;;;;;17.47;82.56;99627.63;344039;28;1137;-81
2023/10/24 00:02:42;;;;;;;;;;;;;;;17.46;82.72;99628.56;344605;28;1035;-80
2023/10/24 00:02:53;;;;;;;;;;;;;;;17.46;82.63;99631.22;342937;28;1298;-80
2023/10/24 00:03:03;;;;;;;;;;;;;;;17.46;82.72;99630.38;344935;28;991;-81
2023/10/24 00:03:13;;;;;;;;;;;;;;;17.44;82.80;99630.47;345394;28;1320;-81
2023/10/24 00:03:23;;;;;;;;;;;;;;;17.42;82.97;99629.75;345581;28;1196;-81
2023/10/24 00:03:34;;;;;;;;;;;;;;;17.44;82.98;99632.28;344727;28;1306;-81
2023/10/24 00:03:44;;;;;;;;;;;;;;;17.43;82.87;99628.78;346921;28;1327;-81
2023/10/24 00:03:54;;;;;;;;;;;;;;;17.42;82.82;99628.91;345231;28;1097;-81
2023/10/24 00:04:05;;;;;;;;;;;;;;;17.43;82.87;99628.78;343073;28;1329;-81
2023/10/24 00:04:15;;;;;;;;;;;;;;;17.43;82.72;99628.78;338640;29;1350;-81
2023/10/24 00:04:25;;;;;;;;;;;;;;;17.41;82.81;99628.03;340125;29;1206;-81
2023/10/24 00:04:35;;;;;;;;;;;;;;;17.41;82.75;99621.91;339091;29;1298;-81
2023/10/24 00:04:46;;;;;;;;;;;;;;;17.40;82.83;99631.66;338944;29;1522;-81
2023/10/24 00:04:56;;;;;;;;;;;;;;;17.40;82.92;99625.50;342965;28;1179;-81
2023/10/24 00:05:06;;;;;;;;;;;;;;;17.41;82.74;99625.41;343474;28;1285;-80
2023/10/24 00:05:17;;;;;;;;;;;;;;;17.40;83.01;99629.00;341998;29;1318;-80
2023/10/24 00:05:28;;;;;;;;;;;;;;;17.41;82.87;99632.50;338757;29;1204;-80
2023/10/24 00:05:38;;;;;;;;;;;;;;;17.41;83.00;99619.25;340230;29;1269;-80
2023/10/24 00:05:51;;;;;;;;;;;;;;;17.41;82.98;99624.56;343116;28;1302;-80
2023/10/24 00:06:03;;;;;;;;;;;;;;;17.41;83.00;99625.41;341256;28;1378;-80
2023/10/24 00:06:15;;;;;;;;;;;;;;;17.42;82.89;99629.75;340362;29;1243;-80
2023/10/24 00:06:25;;;;;;;;;;;;;;;17.42;82.94;99623.59;332435;29;1671;-80
2023/10/24 00:06:35;;;;;;;;;;;;;;;17.42;82.84;99623.59;326215;30;1993;-80
2023/10/24 00:06:45;;;;;;;;;;;;;;;17.42;82.73;99621.81;323587;30;2157;-80
2023/10/24 00:06:56;;;;;;;;;;;;;;;17.42;82.71;99635.03;325268;30;1270;-80
2023/10/24 00:07:06;;;;;;;;;;;;;;;17.43;82.59;99626.16;325646;30;2151;-80
2023/10/24 00:07:16;;;;;;;;;;;;;;;17.44;82.59;99624.34;325280;30;1664;-80
2023/10/24 00:07:26;;;;;;;;;;;;;;;17.43;82.67;99620.00;325026;30;1290;-80
2023/10/24 00:07:37;;;;;;;;;;;;;;;17.42;82.74;99624.44;326780;30;1357;-80
2023/10/24 00:07:47;;;;;;;;;;;;;;;17.42;82.95;99623.59;327827;30;1170;-80
2023/10/24 00:07:57;;;;;;;;;;;;;;;17.41;82.76;99627.19;327933;30;1264;-80
2023/10/24 00:08:07;;;;;;;;;;;;;;;17.41;82.46;99630.69;328309;30;1517;-80
2023/10/24 00:08:18;;;;;;;;;;;;;;;17.41;82.62;99616.63;327959;29;1868;-80
2023/10/24 00:08:28;;;;;;;;;;;;;;;17.42;82.79;99627.09;329261;30;1330;-80
2023/10/24 00:08:38;;;;;;;;;;;;;;;17.43;82.68;99623.50;331064;29;2161;-81
2023/10/24 00:08:49;;;;;;;;;;;;;;;17.43;82.59;99615.56;333260;29;2332;-81
2023/10/24 00:08:59;;;;;;;;;;;;;;;17.43;82.55;99623.50;333839;29;1238;-81
2023/10/24 00:09:09;;;;;;;;;;;;;;;17.44;82.57;99622.53;328230;29;2442;-81
2023/10/24 00:09:19;;;;;;;;;;;;;;;17.43;82.77;99615.56;326944;30;2382;-81
2023/10/24 00:09:29;;;;;;;;;;;;;;;17.42;82.68;99624.44;329000;30;1013;-81
2023/10/24 00:09:40;;;;;;;;;;;;;;;17.43;82.81;99623.50;328909;30;1241;-81
2023/10/24 00:09:50;;;;;;;;;;;;;;;17.43;82.80;99620.00;326653;30;1399;-81
2023/10/24 00:10:01;;;;;;;;;;;;;;;17.41;82.85;99617.47;325799;30;1714;-81
2023/10/24 00:10:11;;;;;;;;;;;;;;;17.40;82.90;99609.63;325316;30;1292;-81
2023/10/24 00:10:22;;;;;;;;;;;;;;;17.40;82.98;99615.78;324291;30;1947;-81
2023/10/24 00:10:33;;;;;;;;;;;;;;;17.40;82.94;99615.78;319891;30;2533;-81
2023/10/24 00:10:43;;;;;;;;;;;;;;;17.39;83.03;99616.72;318128;31;1247;-81
2023/10/24 00:11:03;;;;;;;;;;;;;;;17.40;82.85;99621.06;314312;31;3145;-81
2023/10/24 00:11:13;;;;;;;;;;;;;;;17.40;82.99;99621.06;316963;31;775;-81
2023/10/24 00:11:23;;;;;;;;;;;;;;;17.40;82.88;99614.91;314014;31;3110;-81
2023/10/24 00:11:33;;;;;;;;;;;;;;;17.39;83.01;99619.38;314397;31;2905;-81
2023/10/24 00:11:44;;;;;;;;;;;;;;;17.37;83.16;99615.97;314889;31;767;-81
2023/10/24 00:11:54;;;;;;;;;;;;;;;17.39;82.97;99618.53;312814;31;2392;-81
2023/10/24 00:12:04;;;;;;;;;;;;;;;17.37;82.90;99610.69;309524;31;2105;-81
2023/10/24 00:12:15;;;;;;;;;;;;;;;17.35;83.10;99607.31;309562;31;2619;-81
2023/10/24 00:12:25;;;;;;;;;;;;;;;17.34;83.17;99616.19;313809;31;898;-81
2023/10/24 00:12:35;;;;;;;;;;;;;;;17.33;83.17;99619.78;310705;31;2776;-81
2023/10/24 00:12:46;;;;;;;;;;;;;;;17.33;83.20;99609.19;309152;31;3644;-81
2023/10/24 00:12:56;;;;;;;;;;;;;;;17.35;83.24;99612.59;306055;32;1351;-81
2023/10/24 00:13:07;;;;;;;;;;;;;;;17.37;83.21;99615.97;309551;31;4154;-81
2023/10/24 00:13:17;;;;;;;;;;;;;;;17.37;83.16;99621.28;308869;31;5215;-81
2023/10/24 00:13:28;;;;;;;;;;;;;;;17.38;83.15;99611.53;306193;32;1222;-81
2023/10/24 00:13:38;;;;;;;;;;;;;;;17.39;82.96;99616.72;304739;32;4091;-81
2023/10/24 00:13:48;;;;;;;;;;;;;;;17.38;83.01;99612.38;300237;32;4289;-81
2023/10/24 00:13:58;;;;;;;;;;;;;;;17.39;83.02;99622.00;298555;33;812;-81
2023/10/24 00:14:09;;;;;;;;;;;;;;;17.40;83.15;99615.78;302444;32;3515;-81
2023/10/24 00:14:19;;;;;;;;;;;;;;;17.39;83.08;99613.22;299994;32;3153;-81
2023/10/24 00:14:29;;;;;;;;;;;;;;;17.38;83.06;99612.38;298904;33;1117;-81
2023/10/24 00:14:39;;;;;;;;;;;;;;;17.39;83.20;99614.06;292630;33;4183;-81
2023/10/24 00:14:50;;;;;;;;;;;;;;;17.39;82.98;99608.78;291795;33;4805;-81
2023/10/24 00:15:00;;;;;;;;;;;;;;;17.40;82.93;99615.78;290313;33;5365;-81
2023/10/24 00:15:10;;;;;;;;;;;;;;;17.40;83.18;99615.78;291758;34;1342;-81
2023/10/24 00:15:21;;;;;;;;;;;;;;;17.41;82.97;99616.63;292319;33;6581;-81
2023/10/24 00:15:31;;;;;;;;;;;;;;;17.40;83.01;99613.13;291790;33;7118;-81
2023/10/24 00:15:41;;;;;;;;;;;;;;;17.40;83.25;99618.41;290183;34;1326;-81
2023/10/24 00:15:51;;;;;;;;;;;;;;;17.39;83.20;99614.06;290983;33;5675;-81
2023/10/24 00:16:01;;;;;;;;;;;;;;;17.38;83.45;99617.69;289084;33;6146;-81
2023/10/24 00:16:12;;;;;;;;;;;;;;;17.38;83.35;99617.69;293157;33;1131;-81
2023/10/24 00:16:22;;;;;;;;;;;;;;;17.38;83.35;99617.69;288658;34;5389;-81
2023/10/24 00:16:32;;;;;;;;;;;;;;;17.39;83.31;99618.53;284379;34;5142;-80
2023/10/24 00:16:43;;;;;;;;;;;;;;;17.39;83.18;99622.00;284039;34;1260;-80
2023/10/24 00:16:53;;;;;;;;;;;;;;;17.39;83.16;99616.72;286397;34;5751;-80
2023/10/24 00:17:03;;;;;;;;;;;;;;;17.40;83.06;99615.78;283609;34;7533;-80
2023/10/24 00:17:14;;;;;;;;;;;;;;;17.40;83.04;99621.06;282428;35;858;-80
2023/10/24 00:19:40;;;;;;;;;;;;;;;17.31;83.43;99613.78;2507733;27;19923;-81
2023/10/24 00:19:50;;;;;;;;;;;;;;;17.31;83.45;99611.13;356790;27;902;-80
2023/10/24 00:20:00;;;;;;;;;;;;;;;17.29;83.51;99619.19;355235;27;1013;-80
2023/10/24 00:20:10;;;;;;;;;;;;;;;17.29;83.69;99610.41;352347;28;1246;-80
2023/10/24 00:20:21;;;;;;;;;;;;;;;17.30;83.66;99614.72;351065;28;1347;-80
2023/10/24 00:20:31;;;;;;;;;;;;;;;17.29;83.54;99613.03;351065;28;1392;-80
2023/10/24 00:20:41;;;;;;;;;;;;;;;17.29;83.56;99615.69;351197;28;1236;-80
2023/10/24 00:20:52;;;;;;;;;;;;;;;17.30;83.60;99614.72;350069;28;1195;-80
2023/10/24 00:21:02;;;;;;;;;;;;;;;17.31;83.68;99613.78;351269;28;1321;-80
2023/10/24 00:21:12;;;;;;;;;;;;;;;17.34;83.54;99617.97;350786;28;1346;-80
2023/10/24 00:21:22;;;;;;;;;;;;;;;17.34;83.46;99616.19;351232;28;1394;-80
2023/10/24 00:21:33;;;;;;;;;;;;;;;17.33;83.45;99609.19;349659;28;1238;-80
2023/10/24 00:21:43;;;;;;;;;;;;;;;17.32;83.54;99612.84;348250;28;1337;-80
2023/10/24 00:21:53;;;;;;;;;;;;;;;17.30;83.57;99612.09;347988;28;1341;-80
2023/10/24 00:22:03;;;;;;;;;;;;;;;17.31;83.77;99611.13;347976;28;1192;-80
2023/10/24 00:22:14;;;;;;;;;;;;;;;17.29;83.84;99611.25;346899;28;1216;-80
2023/10/24 00:22:24;;;;;;;;;;;;;;;17.31;83.63;99615.59;345660;28;888;-80
2023/10/24 00:22:34;;;;;;;;;;;;;;;17.30;83.70;99609.44;348676;28;868;-80
2023/10/24 00:22:44;;;;;;;;;;;;;;;17.30;83.77;99612.09;349006;28;1098;-80
2023/10/24 00:22:55;;;;;;;;;;;;;;;17.28;83.74;99611.34;350706;28;1276;-80
2023/10/24 00:23:05;;;;;;;;;;;;;;;17.27;83.75;99615.78;349912;28;1231;-80
2023/10/24 00:23:15;;;;;;;;;;;;;;;17.28;83.65;99612.19;348758;28;1371;-80
2023/10/24 00:23:25;;;;;;;;;;;;;;;17.29;83.95;99613.03;351355;28;920;-80
2023/10/24 00:23:36;;;;;;;;;;;;;;;17.29;83.80;99608.59;351303;28;879;-80
2023/10/24 00:23:46;;;;;;;;;;;;;;;17.30;83.77;99609.44;351948;28;1036;-80
2023/10/24 00:23:56;;;;;;;;;;;;;;;17.31;83.56;99610.28;353805;28;1223;-80
2023/10/24 00:24:06;;;;;;;;;;;;;;;17.30;83.93;99614.72;348563;28;1402;-80
2023/10/24 00:24:17;;;;;;;;;;;;;;;17.30;83.77;99612.09;347619;28;1348;-80
2023/10/24 00:24:27;;;;;;;;;;;;;;;17.29;83.78;99610.41;347247;28;1309;-80
2023/10/24 00:24:37;;;;;;;;;;;;;;;17.29;83.62;99618.34;348163;28;1219;-80
2023/10/24 00:24:48;;;;;;;;;;;;;;;17.28;83.52;99611.34;348387;28;1225;-80
2023/10/24 00:24:58;;;;;;;;;;;;;;;17.28;83.71;99604.25;352206;28;1219;-80
2023/10/24 00:25:08;;;;;;;;;;;;;;;17.28;83.63;99608.69;353651;28;1307;-80
2023/10/24 00:25:19;;;;;;;;;;;;;;;17.29;83.71;99613.03;353899;28;875;-80
2023/10/24 00:25:29;;;;;;;;;;;;;;;17.28;83.61;99609.53;350949;28;1226;-80
2023/10/24 00:25:39;;;;;;;;;;;;;;;17.28;83.68;99614.00;350944;28;1207;-79
2023/10/24 00:25:49;;;;;;;;;;;;;;;17.27;83.63;99607.84;351087;28;1271;-79
2023/10/24 00:25:59;;;;;;;;;;;;;;;17.27;83.71;99609.66;351155;28;1345;-79
2023/10/24 00:26:10;;;;;;;;;;;;;;;17.26;83.74;99608.81;349015;28;1182;-79
2023/10/24 00:26:20;;;;;;;;;;;;;;;17.26;83.70;99607.97;347137;28;1058;-79
2023/10/24 00:26:30;;;;;;;;;;;;;;;17.26;83.77;99610.59;348251;28;1387;-80
2023/10/24 00:26:40;;;;;;;;;;;;;;;17.26;83.85;99613.25;348677;28;1249;-80
2023/10/24 00:26:51;;;;;;;;;;;;;;;17.24;83.87;99604.56;349452;28;1331;-80
2023/10/24 00:27:01;;;;;;;;;;;;;;;17.24;83.85;99604.56;348575;28;891;-80
2023/10/24 00:27:12;;;;;;;;;;;;;;;17.25;83.73;99616.84;348286;28;1309;-80
2023/10/24 00:27:23;;;;;;;;;;;;;;;17.24;83.81;99607.22;343902;28;1329;-80
2023/10/24 00:27:33;;;;;;;;;;;;;;;17.23;83.87;99606.38;347281;28;1302;-80
2023/10/24 00:27:44;;;;;;;;;;;;;;;17.23;83.90;99613.47;346841;28;1428;-80
2023/10/24 00:27:55;;;;;;;;;;;;;;;17.24;83.81;99607.22;340152;29;1295;-80
2023/10/24 00:28:05;;;;;;;;;;;;;;;17.26;83.69;99606.16;342428;28;1366;-80
2023/10/24 00:28:15;;;;;;;;;;;;;;;17.27;83.72;99609.66;343154;28;1240;-80
2023/10/24 00:28:25;;;;;;;;;;;;;;;17.26;83.80;99607.97;344200;28;1184;-80
2023/10/24 00:28:36;;;;;;;;;;;;;;;17.26;83.64;99607.97;337712;29;1308;-80
2023/10/24 00:28:46;;;;;;;;;;;;;;;17.26;83.86;99602.66;337774;29;1222;-80
2023/10/24 00:28:56;;;;;;;;;;;;;;;17.26;83.77;99605.31;340577;29;1120;-80
2023/10/24 00:29:06;;;;;;;;;;;;;;;17.26;83.75;99607.97;341291;29;1226;-80
2023/10/24 00:29:17;;;;;;;;;;;;;;;17.24;83.80;99612.50;340097;29;1377;-80
2023/10/24 00:29:28;;;;;;;;;;;;;;;17.23;83.81;99611.66;336089;29;1186;-80
2023/10/24 00:29:38;;;;;;;;;;;;;;;17.21;83.68;99610.06;339297;29;1351;-80
2023/10/24 00:29:48;;;;;;;;;;;;;;;17.22;83.89;99606.47;338953;29;1814;-80
2023/10/24 00:29:59;;;;;;;;;;;;;;;17.19;83.94;99602.25;336748;29;1959;-80
2023/10/24 00:30:10;;;;;;;;;;;;;;;17.19;83.97;99612.81;333436;29;1379;-80
2023/10/24 00:30:20;;;;;;;;;;;;;;;17.20;83.94;99609.22;333799;29;1881;-80
2023/10/24 00:30:31;;;;;;;;;;;;;;;17.20;83.92;99608.38;333763;29;1898;-80
2023/10/24 00:30:41;;;;;;;;;;;;;;;17.20;83.94;99605.72;332661;29;1337;-80
2023/10/24 00:30:51;;;;;;;;;;;;;;;17.20;83.89;99606.56;333700;29;1493;-80
2023/10/24 00:31:03;;;;;;;;;;;;;;;17.20;83.78;99608.38;333052;29;1036;-80
2023/10/24 00:31:14;;;;;;;;;;;;;;;17.21;83.95;99610.06;333327;29;1108;-80
2023/10/24 00:31:24;;;;;;;;;;;;;;;17.22;83.91;99603.81;330231;30;1293;-80
2023/10/24 00:31:34;;;;;;;;;;;;;;;17.20;84.01;99603.09;331391;29;2013;-80
2023/10/24 00:31:44;;;;;;;;;;;;;;;17.20;83.83;99608.38;332339;29;2242;-80
2023/10/24 00:31:55;;;;;;;;;;;;;;;17.22;83.87;99611.75;334084;29;1319;-80
2023/10/24 00:32:05;;;;;;;;;;;;;;;17.22;83.94;99612.59;334358;29;2265;-80
2023/10/24 00:32:15;;;;;;;;;;;;;;;17.20;83.87;99608.38;333342;29;2530;-80
2023/10/24 00:32:25;;;;;;;;;;;;;;;17.20;84.01;99605.72;330934;29;1403;-80
2023/10/24 00:32:36;;;;;;;;;;;;;;;17.19;84.14;99609.31;332047;29;2406;-80
2023/10/24 00:32:49;;;;;;;;;;;;;;;17.19;84.00;99606.69;331999;29;2308;-79
2023/10/24 00:32:59;;;;;;;;;;;;;;;17.18;84.00;99610.28;327338;30;1699;-79
2023/10/24 00:33:09;;;;;;;;;;;;;;;17.18;84.12;99608.47;324959;30;1364;-79
2023/10/24 00:33:20;;;;;;;;;;;;;;;17.18;84.11;99605.00;324301;30;1302;-81
2023/10/24 00:33:31;;;;;;;;;;;;;;;17.18;84.07;99612.91;325821;30;2063;-81
2023/10/24 00:33:41;;;;;;;;;;;;;;;17.18;83.82;99605.00;323959;30;1240;-81
2023/10/24 00:33:52;;;;;;;;;;;;;;;17.17;84.02;99608.59;321787;30;2559;-80
2023/10/24 00:34:02;;;;;;;;;;;;;;;17.16;84.04;99612.19;317926;30;2336;-79
2023/10/24 00:34:12;;;;;;;;;;;;;;;17.15;84.10;99613.13;317318;31;1357;-81
2023/10/24 00:34:22;;;;;;;;;;;;;;;17.14;84.11;99607.00;318492;30;2807;-81
2023/10/24 00:34:33;;;;;;;;;;;;;;;17.14;84.14;99608.78;320023;30;3653;-80
2023/10/24 00:34:43;;;;;;;;;;;;;;;17.13;84.27;99601.81;321333;30;1332;-80
2023/10/24 00:34:53;;;;;;;;;;;;;;;17.13;84.25;99613.22;316207;30;3506;-79
2023/10/24 00:35:04;;;;;;;;;;;;;;;17.14;84.43;99609.63;313868;31;3180;-79
2023/10/24 00:35:14;;;;;;;;;;;;;;;17.14;84.21;99609.63;311584;31;2231;-79
2023/10/24 00:35:24;;;;;;;;;;;;;;;17.12;84.36;99611.53;312246;31;1109;-79
2023/10/24 00:35:34;;;;;;;;;;;;;;;17.13;84.27;99612.38;311917;31;2108;-79
2023/10/24 00:35:44;;;;;;;;;;;;;;;17.13;84.36;99612.38;310431;31;2727;-79
2023/10/24 00:35:55;;;;;;;;;;;;;;;17.13;84.34;99607.09;311099;31;1310;-79
2023/10/24 00:36:05;;;;;;;;;;;;;;;17.12;84.43;99610.69;308444;31;3323;-79
2023/10/24 00:36:15;;;;;;;;;;;;;;;17.11;84.44;99604.56;307808;31;3627;-80
2023/10/24 00:36:25;;;;;;;;;;;;;;;17.12;84.34;99613.34;309074;32;1256;-81
2023/10/24 00:36:38;;;;;;;;;;;;;;;17.11;84.47;99609.84;307724;31;3936;-80
2023/10/24 00:36:49;;;;;;;;;;;;;;;17.12;84.33;99605.41;304778;32;4539;-80
2023/10/24 00:36:59;;;;;;;;;;;;;;;17.11;84.45;99609.00;303160;32;4694;-80
2023/10/24 00:37:09;;;;;;;;;;;;;;;17.11;84.49;99604.56;306324;32;891;-80
2023/10/24 00:37:19;;;;;;;;;;;;;;;17.10;84.46;99610.78;303963;32;3988;-80
2023/10/24 00:37:29;;;;;;;;;;;;;;;17.10;84.43;99612.59;301889;32;3256;-80
2023/10/24 00:37:40;;;;;;;;;;;;;;;17.09;84.39;99610.91;303611;32;1280;-80
2023/10/24 00:37:50;;;;;;;;;;;;;;;17.08;84.44;99606.56;297754;32;3019;-80
2023/10/24 00:38:00;;;;;;;;;;;;;;;17.08;84.48;99610.03;296057;32;3717;-80
2023/10/24 00:38:10;;;;;;;;;;;;;;;17.08;84.97;99603.91;300740;32;841;-80
2023/10/24 00:38:21;;;;;;;;;;;;;;;17.08;84.55;99609.19;298894;32;5151;-80
2023/10/24 00:38:34;;;;;;;;;;;;;;;17.08;84.65;99609.19;295694;33;5289;-80
2023/10/24 00:38:44;;;;;;;;;;;;;;;17.09;84.66;99609.09;293692;33;5317;-80
2023/10/24 00:38:54;;;;;;;;;;;;;;;17.09;84.82;99608.25;292727;33;1378;-80
2023/10/24 00:39:05;;;;;;;;;;;;;;;17.09;84.74;99608.25;292018;33;6647;-80
2023/10/24 00:39:15;;;;;;;;;;;;;;;17.09;84.72;99605.59;291036;33;8858;-80
2023/10/24 00:39:25;;;;;;;;;;;;;;;17.08;84.98;99609.19;293178;33;792;-80
2023/10/24 00:39:36;;;;;;;;;;;;;;;17.08;84.83;99609.19;290732;33;5543;-80
2023/10/24 00:39:46;;;;;;;;;;;;;;;17.07;84.73;99607.50;288374;34;4768;-80
2023/10/24 00:39:56;;;;;;;;;;;;;;;17.08;84.90;99609.19;287650;34;1235;-80
2023/10/24 00:40:07;;;;;;;;;;;;;;;17.07;84.79;99608.34;284195;34;4938;-80
2023/10/24 00:40:21;;;;;;;;;;;;;;;17.06;84.72;99605.81;282216;34;6010;-80
2023/10/24 00:40:34;;;;;;;;;;;;;;;17.06;84.96;99604.00;279976;34;7479;-80
2023/10/24 00:40:44;;;;;;;;;;;;;;;17.06;84.91;99606.66;279721;34;7330;-80
2023/10/24 00:40:54;;;;;;;;;;;;;;;17.05;84.97;99612.06;280612;35;925;-80
2023/10/24 00:43:21;;;;;;;;;;;;;;;16.94;85.35;99608.31;2507654;27;19933;-80
2023/10/24 00:43:31;;;;;;;;;;;;;;;16.96;85.33;99610.88;354929;27;1247;-80
2023/10/24 00:43:41;;;;;;;;;;;;;;;16.96;85.29;99606.44;351056;28;1238;-80
2023/10/24 00:43:52;;;;;;;;;;;;;;;17.00;85.23;99611.50;351038;28;1187;-80
2023/10/24 00:44:02;;;;;;;;;;;;;;;17.00;85.22;99614.16;349808;28;1047;-80
2023/10/24 00:44:13;;;;;;;;;;;;;;;17.02;85.20;99609.63;351208;28;840;-80
2023/10/24 00:44:23;;;;;;;;;;;;;;;17.03;85.22;99612.16;351508;28;1333;-80
2023/10/24 00:44:34;;;;;;;;;;;;;;;17.05;84.84;99601.47;352879;28;1269;-80
2023/10/24 00:44:44;;;;;;;;;;;;;;;17.07;84.97;99607.50;352795;28;1353;-80
2023/10/24 00:44:54;;;;;;;;;;;;;;;17.04;84.87;99608.56;353201;28;760;-80
2023/10/24 00:45:05;;;;;;;;;;;;;;;17.05;85.02;99609.41;350711;28;1288;-80
2023/10/24 00:45:16;;;;;;;;;;;;;;;17.04;85.03;99602.41;347841;28;1333;-80
2023/10/24 00:45:26;;;;;;;;;;;;;;;17.05;84.94;99615.53;349434;28;1363;-80
2023/10/24 00:45:36;;;;;;;;;;;;;;;17.06;84.95;99611.09;346637;28;1256;-80
2023/10/24 00:45:46;;;;;;;;;;;;;;;17.06;84.89;99605.81;346338;28;1318;-80
2023/10/24 00:45:57;;;;;;;;;;;;;;;17.06;84.99;99605.81;348238;28;1312;-80
2023/10/24 00:46:07;;;;;;;;;;;;;;;17.08;84.80;99609.19;349861;28;1215;-80
2023/10/24 00:46:17;;;;;;;;;;;;;;;17.07;84.89;99607.50;346757;28;1401;-80
2023/10/24 00:46:28;;;;;;;;;;;;;;;17.07;84.79;99610.16;346776;28;1287;-80
2023/10/24 00:46:39;;;;;;;;;;;;;;;17.07;84.84;99607.50;348144;28;1211;-80
2023/10/24 00:46:49;;;;;;;;;;;;;;;17.06;85.01;99611.09;349640;28;1340;-80
2023/10/24 00:47:00;;;;;;;;;;;;;;;17.06;84.90;99603.16;348515;28;1197;-80
2023/10/24 00:47:10;;;;;;;;;;;;;;;17.05;85.00;99604.97;348342;28;1325;-80
2023/10/24 00:47:20;;;;;;;;;;;;;;;17.04;84.98;99611.19;348923;28;832;-80
2023/10/24 00:47:31;;;;;;;;;;;;;;;17.04;84.98;99607.72;348584;28;1165;-80
2023/10/24 00:47:41;;;;;;;;;;;;;;;17.04;84.97;99602.41;348421;28;944;-80
2023/10/24 00:47:51;;;;;;;;;;;;;;;17.04;84.94;99605.06;349407;28;1194;-80
2023/10/24 00:48:02;;;;;;;;;;;;;;;17.03;85.11;99606.00;347982;28;1219;-80
2023/10/24 00:48:13;;;;;;;;;;;;;;;17.04;85.28;99605.06;346499;28;1471;-80
2023/10/24 00:48:23;;;;;;;;;;;;;;;17.04;85.26;99605.06;349573;28;747;-80
2023/10/24 00:48:34;;;;;;;;;;;;;;;17.03;85.24;99604.22;348331;28;797;-80
2023/10/24 00:48:44;;;;;;;;;;;;;;;17.02;85.34;99609.63;349282;28;1156;-80
2023/10/24 00:48:55;;;;;;;;;;;;;;;17.02;85.31;99609.63;348154;28;1250;-80
2023/10/24 00:49:05;;;;;;;;;;;;;;;17.01;85.27;99607.91;348227;28;1313;-80
2023/10/24 00:49:15;;;;;;;;;;;;;;;17.00;85.34;99607.06;346916;28;1207;-80
2023/10/24 00:49:26;;;;;;;;;;;;;;;17.01;85.25;99605.28;347312;28;1485;-80
2023/10/24 00:49:36;;;;;;;;;;;;;;;17.02;85.21;99609.63;350181;28;1179;-80
2023/10/24 00:49:46;;;;;;;;;;;;;;;17.02;85.21;99602.53;352118;28;971;-80
2023/10/24 00:49:57;;;;;;;;;;;;;;;17.02;85.24;99612.25;349969;28;1188;-80
2023/10/24 00:50:07;;;;;;;;;;;;;;;17.03;85.32;99612.16;349018;28;830;-80
2023/10/24 00:50:17;;;;;;;;;;;;;;;17.03;85.27;99609.50;349271;28;1254;-80
2023/10/24 00:50:28;;;;;;;;;;;;;;;17.02;85.44;99599.03;349320;28;1413;-81
2023/10/24 00:50:38;;;;;;;;;;;;;;;17.01;85.35;99602.63;349429;28;1304;-80
2023/10/24 00:50:48;;;;;;;;;;;;;;;17.00;85.46;99606.22;345480;28;1366;-80
2023/10/24 00:50:58;;;;;;;;;;;;;;;17.00;85.50;99611.50;347369;28;804;-80
2023/10/24 00:51:09;;;;;;;;;;;;;;;17.00;85.48;99608.88;346572;28;1253;-80
2023/10/24 00:51:19;;;;;;;;;;;;;;;17.01;85.46;99602.63;348483;28;1303;-80
2023/10/24 00:51:29;;;;;;;;;;;;;;;17.00;85.45;99612.34;346359;28;1378;-80
2023/10/24 00:51:40;;;;;;;;;;;;;;;17.01;85.53;99607.91;346761;28;1275;-80
2023/10/24 00:51:50;;;;;;;;;;;;;;;17.01;85.36;99614.06;344381;28;860;-80
2023/10/24 00:52:01;;;;;;;;;;;;;;;17.01;85.40;99613.19;343924;28;1426;-80
2023/10/24 00:52:11;;;;;;;;;;;;;;;17.00;85.37;99607.06;341817;28;1488;-80
2023/10/24 00:52:21;;;;;;;;;;;;;;;16.99;85.65;99604.53;344742;28;1066;-80
2023/10/24 00:52:32;;;;;;;;;;;;;;;16.99;85.44;99610.66;343243;28;1289;-80
2023/10/24 00:52:43;;;;;;;;;;;;;;;16.99;85.52;99604.53;342898;28;1209;-80
2023/10/24 00:52:54;;;;;;;;;;;;;;;16.98;85.54;99605.47;342538;28;766;-80
2023/10/24 00:53:04;;;;;;;;;;;;;;;16.96;85.56;99606.44;341322;28;1377;-80
2023/10/24 00:53:14;;;;;;;;;;;;;;;16.98;85.57;99608.13;338325;29;1241;-80
2023/10/24 00:53:24;;;;;;;;;;;;;;;16.98;85.57;99603.69;336502;29;1749;-80
2023/10/24 00:53:35;;;;;;;;;;;;;;;16.98;85.73;99605.47;337440;29;1405;-80
2023/10/24 00:53:46;;;;;;;;;;;;;;;16.96;85.66;99609.06;337053;29;1948;-80
2023/10/24 00:53:57;;;;;;;;;;;;;;;16.96;85.63;99601.13;334809;29;1837;-80
2023/10/24 00:54:07;;;;;;;;;;;;;;;16.98;85.71;99608.13;333599;29;1330;-80
2023/10/24 00:54:17;;;;;;;;;;;;;;;16.98;85.59;99608.97;331233;29;1952;-80
2023/10/24 00:54:28;;;;;;;;;;;;;;;17.00;85.32;99603.56;332456;29;1608;-80
2023/10/24 00:54:38;;;;;;;;;;;;;;;17.00;85.29;99599.13;333734;29;859;-80
2023/10/24 00:54:48;;;;;;;;;;;;;;;16.99;85.62;99604.53;335144;29;870;-80
2023/10/24 00:54:58;;;;;;;;;;;;;;;16.96;85.46;99609.06;334666;29;1299;-80
2023/10/24 00:55:08;;;;;;;;;;;;;;;16.98;85.61;99605.47;333679;29;1370;-80
2023/10/24 00:55:19;;;;;;;;;;;;;;;16.96;85.66;99603.78;327802;30;1444;-80
2023/10/24 00:55:30;;;;;;;;;;;;;;;16.98;85.59;99602.84;326278;30;1786;-80
2023/10/24 00:55:40;;;;;;;;;;;;;;;16.99;85.57;99609.81;325008;30;1937;-79
2023/10/24 00:55:50;;;;;;;;;;;;;;;16.99;85.51;99604.53;329786;30;1199;-80
2023/10/24 00:56:00;;;;;;;;;;;;;;;17.00;85.68;99606.22;324803;30;2346;-80
2023/10/24 00:56:11;;;;;;;;;;;;;;;16.99;85.83;99602.72;324618;29;2277;-80
2023/10/24 00:56:21;;;;;;;;;;;;;;;16.98;85.77;99608.13;328957;30;922;-80
2023/10/24 00:56:31;;;;;;;;;;;;;;;16.98;86.01;99605.47;330561;29;2277;-80
2023/10/24 00:56:42;;;;;;;;;;;;;;;16.98;85.81;99600.19;326614;30;1858;-80
2023/10/24 00:56:52;;;;;;;;;;;;;;;16.98;85.87;99602.84;325078;30;1473;-80
2023/10/24 00:57:03;;;;;;;;;;;;;;;17.00;85.90;99611.50;324572;30;1404;-80
2023/10/24 00:57:13;;;;;;;;;;;;;;;16.99;85.67;99608.03;324382;30;1534;-80
2023/10/24 00:57:24;;;;;;;;;;;;;;;17.00;85.59;99606.22;323810;30;2035;-80
2023/10/24 00:57:34;;;;;;;;;;;;;;;17.00;85.70;99601.78;326921;30;781;-80
2023/10/24 00:57:44;;;;;;;;;;;;;;;16.99;85.69;99607.16;325801;30;2579;-80
2023/10/24 00:57:54;;;;;;;;;;;;;;;17.00;85.57;99608.88;323023;30;2572;-80
2023/10/24 00:58:05;;;;;;;;;;;;;;;17.01;85.49;99605.28;318311;31;1420;-80
2023/10/24 00:58:15;;;;;;;;;;;;;;;17.00;85.46;99607.06;314775;31;3142;-80
2023/10/24 00:58:26;;;;;;;;;;;;;;;17.02;85.61;99601.69;314013;31;3094;-80
2023/10/24 00:58:36;;;;;;;;;;;;;;;17.03;85.39;99611.31;315676;31;1406;-80
2023/10/24 00:58:48;;;;;;;;;;;;;;;17.03;85.48;99603.38;313953;31;3192;-80
2023/10/24 00:58:59;;;;;;;;;;;;;;;17.03;85.29;99601.56;312174;31;2139;-80
2023/10/24 00:59:09;;;;;;;;;;;;;;;17.02;85.31;99599.88;310584;31;2155;-80
2023/10/24 00:59:19;;;;;;;;;;;;;;;17.01;85.37;99600.84;311222;31;1157;-80
2023/10/24 00:59:29;;;;;;;;;;;;;;;17.01;85.36;99595.53;311786;31;2563;-80
2023/10/24 00:59:40;;;;;;;;;;;;;;;17.02;85.27;99599.88;309236;31;3133;-80
2023/10/24 00:59:50;;;;;;;;;;;;;;;17.02;85.21;99599.03;309293;32;1384;-80
2023/10/24 01:00:00;;;;;;;;;;;;;;;17.01;85.33;99608.75;306572;32;4102;-80
2023/10/24 01:00:11;;;;;;;;;;;;;;;17.01;85.27;99605.28;305205;32;3533;-80
2023/10/24 01:00:21;;;;;;;;;;;;;;;17.01;85.27;99607.91;303046;32;772;-80